Oakland, RI (02858)

3:02 AM EDT on September 29, 2016 (GMT -0400)
Whipple | | Change Station

Elev 364 ft 41.97 °N, 71.66 °W | Updated 26 seconds ago

Overcast
Overcast
55.9 °F
Feels Like 55.9 °F
N
2.2
Wind Variable Wind from SE
Gusts 3.8 mph

Today
High -- | Low -- °F
--% Chance of Precip.
Yesterday
High -- | Low -- °F
Precip. -- in
Pressure 30.40 in
Visibility 10.0 miles
Clouds Overcast 1300 ft
Dew Point 52 °F
Humidity 85%
Rainfall 0.00 in
Snow Depth Not available.
6:41 AM 6:30 PM
Waning Crescent, 3% visible
METAR KSFZ 290656Z AUTO 06008G16KT 10SM OVC013 13/11 A3033 RMK AO2 SLP293 T01330111
Pressure 30.40 in
Visibility 10.0 miles
Clouds Overcast 1300 ft
Dew Point 52 °F
Humidity 85%
Rainfall 0.00 in
Snow Depth Not available.
6:41 AM 6:30 PM
Waning Crescent, 3% visible
METAR KSFZ 290656Z AUTO 06008G16KT 10SM OVC013 13/11 A3033 RMK AO2 SLP293 T01330111

10-Day Weather Forecast

Almanac

Astronomy

Sep. 29, 2016 Rise Set
Actual Time
Civil Twilight
Nautical Twilight
Astronomical Twilight
Moon
Length of Visible Light
Length of Day
Tomorrow will be .
, % of the Moon is Illuminated

Today's Extremes

State Highs State Lows

Community

WunderPhotos

Upload Photos

1,942,446 photos uploaded!

WunderBlog® & News

Nearby

Air Quality

  Air Quality AQ Index Pollutant
Not available.

Snow Depth

Station Depth Elevation

Earthquake Activity

City Distance Mag. Time & Date
Minimum magnitude displayed is 2.5.

Coastal Water Temperatures

Place Temperature

Stations

Nearby Weather Stations

Station Location Temp. Windchill Dew Point Humidity Wind Precip. Elev Updated Type
                   

Watches & Warnings

There are currently no watches in effect.